createdAt,value
2017-03-07T00:00:22.115Z,28.5
2017-03-07T00:01:22.173Z,28.5
2017-03-07T00:02:22.213Z,28.5
2017-03-07T00:03:22.450Z,28.5
2017-03-07T00:04:22.240Z,28.5
2017-03-07T00:05:20.839Z,28.5
2017-03-07T00:06:20.917Z,28.5
2017-03-07T00:07:20.960Z,28.5
2017-03-07T00:08:22.584Z,28.5
2017-03-07T00:09:22.826Z,28.5
2017-03-07T00:10:22.607Z,28.5
2017-03-07T00:11:21.218Z,28.5
2017-03-07T00:12:22.838Z,28.5
2017-03-07T00:13:21.338Z,28.5
2017-03-07T00:14:21.262Z,28.5
2017-03-07T00:15:23.333Z,28.4
2017-03-07T00:16:23.043Z,28.5
2017-03-07T00:17:21.381Z,28.4
2017-03-07T00:18:23.075Z,28.5
2017-03-07T00:19:21.621Z,28.5
2017-03-07T00:20:21.571Z,28.5
2017-03-07T00:21:23.439Z,28.5
2017-03-07T00:22:23.178Z,28.5
2017-03-07T00:23:21.734Z,28.5
2017-03-07T00:24:21.713Z,28.4
2017-03-07T00:25:21.885Z,28.5
2017-03-07T00:26:21.897Z,28.5
2017-03-07T00:27:21.890Z,28.5
2017-03-07T00:28:21.825Z,28.5
2017-03-07T00:29:21.962Z,28.5
2017-03-07T00:30:21.803Z,28.5
2017-03-07T00:31:23.515Z,28.5
2017-03-07T00:32:23.550Z,28.5
2017-03-07T00:33:22.265Z,28.5
2017-03-07T00:34:22.143Z,28.5
2017-03-07T00:35:22.031Z,28.5
2017-03-07T00:36:23.714Z,28.5
2017-03-07T00:37:23.856Z,28.4
2017-03-07T00:38:22.352Z,28.5
2017-03-07T00:39:22.468Z,28.5
2017-03-07T00:40:22.337Z,28.5
2017-03-07T00:41:23.977Z,28.4
2017-03-07T00:42:24.134Z,28.5
2017-03-07T00:43:24.256Z,28.4
2017-03-07T00:44:24.215Z,28.4
2017-03-07T00:45:22.968Z,28.4
2017-03-07T00:46:24.404Z,28.5
2017-03-07T00:47:22.734Z,28.4
2017-03-07T00:48:24.544Z,28.4
2017-03-07T00:49:23.019Z,28.4
2017-03-07T00:50:24.549Z,28.4
2017-03-07T00:51:23.304Z,28.5
2017-03-07T00:52:23.067Z,28.5
2017-03-07T00:53:24.697Z,28.5
2017-03-07T00:54:23.197Z,28.4
2017-03-07T00:55:24.920Z,28.4
2017-03-07T00:56:23.419Z,28.4
2017-03-07T00:57:23.670Z,28.4
2017-03-07T00:58:23.555Z,28.4
2017-03-07T00:59:23.498Z,28.4
2017-03-07T01:00:25.108Z,28.4
2017-03-07T01:01:25.178Z,28.4
2017-03-07T01:02:23.752Z,28.4
2017-03-07T01:03:25.406Z,28.4
2017-03-07T01:04:23.718Z,28.4
2017-03-07T01:05:25.538Z,28.4
2017-03-07T01:06:23.971Z,28.4
2017-03-07T01:07:25.634Z,28.4
2017-03-07T01:08:24.111Z,28.4
2017-03-07T01:09:24.178Z,28.4
2017-03-07T01:10:24.077Z,28.4
2017-03-07T01:11:24.299Z,28.4
2017-03-07T01:12:25.748Z,28.4
2017-03-07T01:13:25.925Z,28.4
2017-03-07T01:14:24.435Z,28.4
2017-03-07T01:15:24.528Z,28.4
2017-03-07T01:16:24.438Z,28.4
2017-03-07T01:17:26.081Z,28.4
2017-03-07T01:18:24.637Z,28.4
2017-03-07T01:19:26.340Z,28.4
2017-03-07T01:20:26.409Z,28.4
2017-03-07T01:21:26.515Z,28.4
2017-03-07T01:22:24.832Z,28.4
2017-03-07T01:23:26.554Z,28.4
2017-03-07T01:24:26.555Z,28.4
2017-03-07T01:25:24.963Z,28.4
2017-03-07T01:26:24.982Z,28.4
2017-03-07T01:27:25.268Z,28.4
2017-03-07T01:28:25.107Z,28.4
2017-03-07T01:29:26.834Z,28.4
2017-03-07T01:30:25.132Z,28.4
2017-03-07T01:31:25.164Z,28.4
2017-03-07T01:32:25.417Z,28.4
2017-03-07T01:33:25.617Z,28.4
2017-03-07T01:34:25.418Z,28.4
2017-03-07T01:35:25.449Z,28.4
2017-03-07T01:36:25.560Z,28.4
2017-03-07T01:37:27.167Z,28.4
2017-03-07T01:38:27.217Z,28.4
2017-03-07T01:39:25.938Z,28.4
2017-03-07T01:40:27.331Z,28.4
2017-03-07T01:41:27.459Z,28.4
2017-03-07T01:42:25.956Z,28.4
2017-03-07T01:43:25.928Z,28.4
2017-03-07T01:44:25.973Z,28.4
2017-03-07T01:45:27.771Z,28.4
2017-03-07T01:46:27.723Z,28.4
2017-03-07T01:47:27.747Z,28.4
2017-03-07T01:48:27.734Z,28.4
2017-03-07T01:49:27.817Z,28.4
2017-03-07T01:50:26.259Z,28.4
2017-03-07T01:51:28.032Z,28.4
2017-03-07T01:52:27.844Z,28.4
2017-03-07T01:53:27.889Z,28.4
2017-03-07T01:54:28.033Z,28.4
2017-03-07T01:55:26.571Z,28.4
2017-03-07T01:56:26.680Z,28.4
2017-03-07T01:57:28.303Z,28.4
2017-03-07T01:58:28.381Z,28.4
2017-03-07T01:59:28.395Z,28.4
2017-03-07T02:00:28.486Z,28.4
2017-03-07T02:01:28.384Z,28.4
2017-03-07T02:02:28.460Z,28.4
2017-03-07T02:03:28.565Z,28.4
2017-03-07T02:04:27.040Z,28.3
2017-03-07T02:05:28.682Z,28.4
2017-03-07T02:06:27.123Z,28.4
2017-03-07T02:07:28.792Z,28.4
2017-03-07T02:08:28.820Z,28.4
2017-03-07T02:09:27.165Z,28.4
2017-03-07T02:10:28.892Z,28.4
2017-03-07T02:11:27.305Z,28.4
2017-03-07T02:12:29.031Z,28.4
2017-03-07T02:13:29.131Z,28.4
2017-03-07T02:14:27.654Z,28.4
2017-03-07T02:15:29.077Z,28.4
2017-03-07T02:16:27.596Z,28.4
2017-03-07T02:17:29.271Z,28.4
2017-03-07T02:18:27.709Z,28.4
2017-03-07T02:19:27.800Z,28.3
2017-03-07T02:20:27.847Z,28.4
2017-03-07T02:21:29.382Z,28.4
2017-03-07T02:22:29.487Z,28.4
2017-03-07T02:23:27.845Z,28.4
2017-03-07T02:24:29.568Z,28.4
2017-03-07T02:25:29.637Z,28.3
2017-03-07T02:26:29.759Z,28.4
2017-03-07T02:27:29.763Z,28.4
2017-03-07T02:28:28.166Z,28.4
2017-03-07T02:29:29.738Z,28.4
2017-03-07T02:30:29.811Z,28.4
2017-03-07T02:31:29.818Z,28.3
2017-03-07T02:32:28.507Z,28.4
2017-03-07T02:33:29.989Z,28.4
2017-03-07T02:34:28.320Z,28.4
2017-03-07T02:35:28.382Z,28.4
2017-03-07T02:36:30.105Z,28.4
2017-03-07T02:37:30.342Z,28.3
2017-03-07T02:43:18.734Z,28.2
2017-03-07T02:44:18.744Z,28.2
2017-03-07T02:45:18.760Z,28.2
2017-03-07T02:46:18.896Z,28.2
2017-03-07T02:47:17.337Z,28.2
2017-03-07T02:48:18.927Z,28.2
2017-03-07T02:49:19.122Z,28.2
2017-03-07T02:50:19.117Z,28.3
2017-03-07T02:51:17.582Z,28.3
2017-03-07T02:52:19.220Z,28.3
2017-03-07T02:53:19.210Z,28.3
2017-03-07T02:54:17.809Z,28.3
2017-03-07T02:55:19.542Z,28.3
2017-03-07T02:56:19.414Z,28.3
2017-03-07T02:57:17.762Z,28.3
2017-03-07T02:58:19.466Z,28.3
2017-03-07T02:59:19.470Z,28.3
2017-03-07T03:00:19.675Z,28.3
2017-03-07T03:01:19.856Z,28.3
2017-03-07T03:02:19.600Z,28.3
2017-03-07T03:03:18.134Z,28.3
2017-03-07T03:04:19.790Z,28.3
2017-03-07T03:05:19.923Z,28.3
2017-03-07T03:06:18.276Z,28.3
2017-03-07T03:07:18.676Z,28.3
2017-03-07T03:08:20.028Z,28.3
2017-03-07T03:09:18.593Z,28.3
2017-03-07T03:10:20.262Z,28.3
2017-03-07T03:11:20.213Z,28.3
2017-03-07T03:12:18.824Z,28.3
2017-03-07T03:13:20.497Z,28.3
2017-03-07T03:14:20.530Z,28.3
2017-03-07T03:15:19.017Z,28.3
2017-03-07T03:16:20.587Z,28.3
2017-03-07T03:17:19.121Z,28.3
2017-03-07T03:18:19.061Z,28.3
2017-03-07T03:19:19.323Z,28.3
2017-03-07T03:20:20.799Z,28.3
2017-03-07T03:21:20.802Z,28.3
2017-03-07T03:22:20.947Z,28.3
2017-03-07T03:23:20.996Z,28.3
2017-03-07T03:24:21.032Z,28.3
2017-03-07T03:25:21.278Z,28.3
2017-03-07T03:26:21.002Z,28.3
2017-03-07T03:27:21.095Z,28.3
2017-03-07T03:28:19.559Z,28.3
2017-03-07T03:29:21.237Z,28.3
2017-03-07T03:30:19.701Z,28.3
2017-03-07T03:31:21.303Z,28.3
2017-03-07T03:32:21.295Z,28.3
2017-03-07T03:33:19.616Z,28.3
2017-03-07T03:34:19.685Z,28.3
2017-03-07T03:35:19.897Z,28.3
2017-03-07T03:36:21.548Z,28.3
2017-03-07T03:37:20.051Z,28.3
2017-03-07T03:38:19.944Z,28.3
2017-03-07T03:39:19.932Z,28.3
2017-03-07T03:40:19.949Z,28.3
2017-03-07T03:41:20.174Z,28.3
2017-03-07T03:42:21.652Z,28.3
2017-03-07T03:43:20.350Z,28.3
2017-03-07T03:44:20.197Z,28.3
2017-03-07T03:45:21.819Z,28.3
2017-03-07T03:46:21.849Z,28.3
2017-03-07T03:47:20.192Z,28.3
2017-03-07T03:48:20.241Z,28.3
2017-03-07T03:49:22.184Z,28.3
2017-03-07T03:50:22.081Z,28.3
2017-03-07T03:51:22.020Z,28.3
2017-03-07T03:52:22.162Z,28.3
2017-03-07T03:53:20.552Z,28.3
2017-03-07T03:54:22.156Z,28.3
2017-03-07T03:55:20.859Z,28.3
2017-03-07T03:56:22.294Z,28.3
2017-03-07T03:57:20.775Z,28.3
2017-03-07T03:58:20.852Z,28.3
2017-03-07T03:59:22.310Z,28.3
2017-03-07T04:00:22.412Z,28.3
2017-03-07T04:01:22.723Z,28.3
2017-03-07T04:02:22.628Z,28.3
2017-03-07T04:03:22.688Z,28.3
2017-03-07T04:04:22.755Z,28.3
2017-03-07T04:05:22.670Z,28.3
2017-03-07T04:06:22.776Z,28.3
2017-03-07T04:07:21.498Z,28.3
2017-03-07T04:08:21.338Z,28.3
2017-03-07T04:09:22.861Z,28.3
2017-03-07T04:10:21.264Z,28.3
2017-03-07T04:11:21.494Z,28.3
2017-03-07T04:12:22.984Z,28.3
2017-03-07T04:13:21.704Z,28.3
2017-03-07T04:14:23.057Z,28.3
2017-03-07T04:15:23.013Z,28.3
2017-03-07T04:16:21.538Z,28.3
2017-03-07T04:17:21.469Z,28.3
2017-03-07T04:18:21.669Z,28.3
2017-03-07T04:19:23.382Z,28.3
2017-03-07T04:20:23.320Z,28.3
2017-03-07T04:21:23.345Z,28.3
2017-03-07T04:22:21.947Z,28.3
2017-03-07T04:23:23.541Z,28.3
2017-03-07T04:24:22.061Z,28.3
2017-03-07T04:25:22.146Z,28.3
2017-03-07T04:26:22.171Z,28.3
2017-03-07T04:27:22.257Z,28.3
2017-03-07T04:28:23.850Z,28.3
2017-03-07T04:29:22.201Z,28.3
2017-03-07T04:30:22.238Z,28.3
2017-03-07T04:31:24.145Z,28.3
2017-03-07T04:32:23.983Z,28.3
2017-03-07T04:33:22.469Z,28.3
2017-03-07T04:34:22.590Z,28.3
2017-03-07T04:35:24.300Z,28.3
2017-03-07T04:36:24.379Z,28.3
2017-03-07T04:37:24.427Z,28.3
2017-03-07T04:38:22.816Z,28.2
2017-03-07T04:39:24.416Z,28.3
2017-03-07T04:40:22.771Z,28.3
2017-03-07T04:41:24.402Z,28.3
2017-03-07T04:42:24.434Z,28.3
2017-03-07T04:43:23.207Z,28.3
2017-03-07T04:44:24.537Z,28.3
2017-03-07T04:45:23.114Z,28.3
2017-03-07T04:46:24.675Z,28.2
2017-03-07T04:47:23.274Z,28.3
2017-03-07T04:48:24.933Z,28.3
2017-03-07T04:49:25.064Z,28.3
2017-03-07T04:50:25.036Z,28.3
2017-03-07T04:51:23.314Z,28.3
2017-03-07T04:52:25.012Z,28.3
2017-03-07T04:53:25.000Z,28.3
2017-03-07T04:54:25.241Z,28.3
2017-03-07T04:55:23.824Z,28.3
2017-03-07T04:56:25.175Z,28.3
2017-03-07T04:57:23.703Z,28.3
2017-03-07T04:58:23.676Z,28.3
2017-03-07T04:59:25.371Z,28.3
2017-03-07T05:00:23.747Z,28.3
2017-03-07T05:01:23.938Z,28.3
2017-03-07T05:02:25.406Z,28.2
2017-03-07T05:03:23.812Z,28.3
2017-03-07T05:04:24.020Z,28.3
2017-03-07T05:05:25.514Z,28.3
2017-03-07T05:06:25.554Z,28.2
2017-03-07T05:07:25.845Z,28.3
2017-03-07T05:08:24.017Z,28.2
2017-03-07T05:09:25.730Z,28.3
2017-03-07T05:10:24.287Z,28.3
2017-03-07T05:11:25.856Z,28.3
2017-03-07T05:12:25.985Z,28.3
2017-03-07T05:13:24.608Z,28.3
2017-03-07T05:14:24.451Z,28.3
2017-03-07T05:15:24.421Z,28.2
2017-03-07T05:16:26.042Z,28.2
2017-03-07T05:17:26.162Z,28.3
2017-03-07T05:18:26.301Z,28.3
2017-03-07T05:19:24.817Z,28.3
2017-03-07T05:20:24.749Z,28.3
2017-03-07T05:21:24.694Z,28.2
2017-03-07T05:22:26.386Z,28.2
2017-03-07T05:23:26.387Z,28.3
2017-03-07T05:24:26.350Z,28.3
2017-03-07T05:25:25.099Z,28.3
2017-03-07T05:26:24.789Z,28.2
2017-03-07T05:27:24.994Z,28.3
2017-03-07T05:28:26.553Z,28.3
2017-03-07T05:29:26.667Z,28.2
2017-03-07T05:30:26.822Z,28.3
2017-03-07T05:31:27.052Z,28.2
2017-03-07T05:32:25.150Z,28.2
2017-03-07T05:33:25.345Z,28.2
2017-03-07T05:34:26.981Z,28.2
2017-03-07T05:35:27.042Z,28.2
2017-03-07T05:36:26.981Z,28.1
2017-03-07T05:37:25.682Z,28.2
2017-03-07T05:38:25.592Z,28.2
2017-03-07T05:39:25.524Z,28.3
2017-03-07T05:40:27.164Z,28.3
2017-03-07T05:41:25.572Z,28.2
2017-03-07T05:42:27.273Z,28.3
2017-03-07T05:43:27.443Z,28.2
2017-03-07T05:44:27.389Z,28.2
2017-03-07T05:45:25.818Z,28.2
2017-03-07T05:46:25.806Z,28.2
2017-03-07T05:47:27.465Z,28.2
2017-03-07T05:48:26.089Z,28.2
2017-03-07T05:49:27.934Z,28.3
2017-03-07T05:50:27.819Z,28.3
2017-03-07T05:51:26.158Z,28.3
2017-03-07T05:52:26.344Z,28.3
2017-03-07T05:53:27.893Z,28.3
2017-03-07T05:54:26.377Z,28.3
2017-03-07T05:55:26.528Z,28.3
2017-03-07T05:56:26.450Z,28.3
2017-03-07T05:57:27.931Z,28.3
2017-03-07T05:58:28.053Z,28.3
2017-03-07T05:59:28.556Z,28.3
2017-03-07T06:00:27.711Z,28.3
2017-03-07T06:01:28.318Z,28.3
2017-03-07T06:02:26.467Z,28.3
2017-03-07T06:03:28.215Z,28.2
2017-03-07T06:04:26.670Z,28.3
2017-03-07T06:05:26.593Z,28.3
2017-03-07T06:06:28.456Z,28.3
2017-03-07T06:07:28.754Z,28.3
2017-03-07T06:08:28.384Z,28.3
2017-03-07T06:09:28.444Z,28
2017-03-07T06:10:26.923Z,27.7
2017-03-07T06:11:28.419Z,27.2
2017-03-07T06:12:26.983Z,26.7
2017-03-07T06:13:28.805Z,26.1
2017-03-07T06:14:28.735Z,25.5
2017-03-07T06:15:27.159Z,25
2017-03-07T06:16:27.188Z,24.5
2017-03-07T06:17:28.763Z,24.1
2017-03-07T06:18:28.728Z,23.9
2017-03-07T06:19:27.477Z,23.7
2017-03-07T06:20:28.903Z,23.7
2017-03-07T06:21:28.890Z,23.6
2017-03-07T06:22:28.993Z,23.1
2017-03-07T06:23:29.000Z,22.8
2017-03-07T06:24:29.058Z,22.5
2017-03-07T06:25:27.717Z,22.1
2017-03-07T06:26:29.358Z,21.9
2017-03-07T06:27:27.697Z,21.8
2017-03-07T06:28:27.784Z,21.7
2017-03-07T06:29:28.876Z,21.6
2017-03-07T06:30:27.922Z,21.6
2017-03-07T06:31:29.769Z,21.5
2017-03-07T06:32:29.648Z,21.4
2017-03-07T06:33:28.117Z,21.3
2017-03-07T06:34:28.178Z,21.3
2017-03-07T06:35:29.939Z,21.3
2017-03-07T06:36:28.314Z,21.2
2017-03-07T06:37:28.570Z,21
2017-03-07T06:38:30.011Z,21
2017-03-07T06:39:28.336Z,20.9
2017-03-07T06:40:28.396Z,20.8
2017-03-07T06:41:30.051Z,20.8
2017-03-07T06:42:30.075Z,20.7
2017-03-07T06:43:28.793Z,20.7
2017-03-07T06:44:30.279Z,20.8
2017-03-07T06:45:28.601Z,20.9
2017-03-07T06:46:30.213Z,21
2017-03-07T06:47:30.446Z,20.9
2017-03-07T06:48:30.414Z,20.8
2017-03-07T06:49:29.197Z,20.7
2017-03-07T06:50:31.195Z,20.6
2017-03-07T06:51:34.257Z,20.6
2017-03-07T06:52:28.973Z,20.6
2017-03-07T06:53:30.624Z,20.4
2017-03-07T06:54:30.649Z,20.3
2017-03-07T06:55:30.791Z,20.2
2017-03-07T06:56:29.100Z,20.2
2017-03-07T06:57:29.173Z,20.1
2017-03-07T06:58:29.384Z,20.2
2017-03-07T06:59:29.336Z,20.2
2017-03-07T07:00:31.254Z,20.2
2017-03-07T07:01:29.575Z,20.2
2017-03-07T07:02:31.202Z,20.2
2017-03-07T07:03:29.715Z,20.3
2017-03-07T07:04:29.722Z,20.2
2017-03-07T07:05:29.530Z,20.1
2017-03-07T07:06:29.895Z,20.1
2017-03-07T07:07:31.215Z,20.1
2017-03-07T07:08:29.841Z,20.1
2017-03-07T07:09:29.853Z,20.3
2017-03-07T07:10:29.726Z,20.6
2017-03-07T07:11:29.758Z,20.9
2017-03-07T07:12:31.744Z,21.2
2017-03-07T07:13:31.519Z,21.5
2017-03-07T07:14:31.404Z,21.7
2017-03-07T07:15:29.841Z,22
2017-03-07T07:16:29.895Z,22.2
2017-03-07T07:17:30.087Z,22.4
2017-03-07T07:18:31.718Z,22.6
2017-03-07T07:19:29.937Z,22.8
2017-03-07T07:20:29.963Z,23
2017-03-07T07:21:32.875Z,23.2
2017-03-07T07:22:31.690Z,23.3
2017-03-07T07:23:31.747Z,23.5
2017-03-07T07:24:31.920Z,23.6
2017-03-07T07:25:30.122Z,23.7
2017-03-07T07:26:30.246Z,23.8
2017-03-07T07:27:30.417Z,23.9
2017-03-07T07:28:30.481Z,24
2017-03-07T07:29:30.753Z,24.1
2017-03-07T07:30:30.514Z,24.2
2017-03-07T07:31:30.580Z,24.3
2017-03-07T07:32:30.729Z,24.4
2017-03-07T07:33:32.938Z,24.5
2017-03-07T07:34:32.386Z,24.6
2017-03-07T07:35:30.903Z,24.7
2017-03-07T07:36:30.769Z,24.7
2017-03-07T07:37:30.911Z,24.8
2017-03-07T07:38:30.865Z,24.9
2017-03-07T07:39:30.963Z,24.9
2017-03-07T07:40:32.735Z,25
2017-03-07T07:41:31.320Z,25.1
2017-03-07T07:42:32.813Z,25.1
2017-03-07T07:43:32.916Z,25.1
2017-03-07T07:44:31.210Z,25.2
2017-03-07T07:45:32.865Z,25.3
2017-03-07T07:46:31.264Z,25.3
2017-03-07T07:47:33.121Z,25.4
2017-03-07T07:48:31.265Z,25.4
2017-03-07T07:49:33.149Z,25.5
2017-03-07T07:50:31.475Z,25.5
2017-03-07T07:51:31.515Z,25.6
2017-03-07T07:52:31.528Z,25.6
2017-03-07T07:53:31.842Z,25.6
2017-03-07T07:54:31.554Z,25.7
2017-03-07T07:55:31.669Z,25.7
2017-03-07T07:56:31.689Z,25.8
2017-03-07T07:57:33.333Z,25.8
2017-03-07T07:58:33.416Z,25.8
2017-03-07T07:59:32.060Z,25.9
2017-03-07T08:00:34.246Z,25.9
2017-03-07T08:01:31.973Z,26
2017-03-07T08:02:32.102Z,26
2017-03-07T08:03:32.055Z,26
2017-03-07T08:04:33.684Z,26.1
2017-03-07T08:05:32.449Z,26.1
2017-03-07T08:06:33.862Z,26.1
2017-03-07T08:07:35.026Z,26.2
2017-03-07T08:08:32.339Z,26.2
2017-03-07T08:09:34.054Z,26.2
2017-03-07T08:10:32.545Z,26.3
2017-03-07T08:11:34.302Z,26.3
2017-03-07T08:12:32.601Z,26.3
2017-03-07T08:13:34.200Z,26.4
2017-03-07T08:14:34.086Z,26.4
2017-03-07T08:15:34.177Z,26.4
2017-03-07T08:16:32.667Z,26.4
2017-03-07T08:17:33.113Z,26.5
2017-03-07T08:18:32.772Z,26.5
2017-03-07T08:19:32.954Z,26.5
2017-03-07T08:20:34.533Z,26.6
2017-03-07T08:21:33.019Z,26.6
2017-03-07T08:22:32.904Z,26.6
2017-03-07T08:23:33.168Z,26.7
2017-03-07T08:24:33.140Z,26.7
2017-03-07T08:25:34.890Z,26.7
2017-03-07T08:26:34.867Z,26.7
2017-03-07T08:27:34.909Z,26.8
2017-03-07T08:28:34.900Z,26.8
2017-03-07T08:29:35.108Z,26.8
2017-03-07T08:30:34.918Z,26.8
2017-03-07T08:31:33.415Z,26.8
2017-03-07T08:32:33.579Z,26.8
2017-03-07T08:33:36.071Z,26.9
2017-03-07T08:34:35.233Z,26.9
2017-03-07T08:35:40.558Z,26.9
2017-03-07T08:36:36.069Z,27
2017-03-07T08:37:33.860Z,27
2017-03-07T08:38:33.673Z,27
2017-03-07T08:39:33.903Z,27
2017-03-07T08:40:35.353Z,27
2017-03-07T08:41:35.596Z,27
2017-03-07T08:42:33.837Z,27
2017-03-07T08:43:33.821Z,27
2017-03-07T08:44:35.675Z,27.1
2017-03-07T08:45:34.623Z,27
2017-03-07T08:46:34.667Z,27.1
2017-03-07T08:47:55.564Z,27.1
2017-03-07T08:48:35.540Z,27.1
2017-03-07T08:49:34.269Z,27.2
2017-03-07T08:50:34.330Z,27.2
2017-03-07T08:51:34.211Z,27.2
2017-03-07T08:52:34.257Z,27.2
2017-03-07T08:53:36.615Z,27.2
2017-03-07T08:54:34.360Z,27.2
2017-03-07T08:55:36.722Z,27.2
2017-03-07T08:56:36.085Z,27.2
2017-03-07T08:57:36.146Z,27.2
2017-03-07T08:58:36.116Z,27.2
2017-03-07T08:59:36.328Z,27.2
2017-03-07T09:00:34.732Z,27.2
2017-03-07T09:01:35.479Z,27.2
2017-03-07T09:02:34.776Z,27.2
2017-03-07T09:03:36.435Z,27.3
2017-03-07T09:04:34.845Z,27.3
2017-03-07T09:05:34.955Z,27.3
2017-03-07T09:06:36.467Z,27.3
2017-03-07T09:07:37.175Z,27.3
2017-03-07T09:08:35.057Z,27.3
2017-03-07T09:09:36.667Z,27.4
2017-03-07T09:10:36.672Z,27.4
2017-03-07T09:11:35.933Z,27.4
2017-03-07T09:12:35.114Z,27.4
2017-03-07T09:13:36.826Z,27.4
2017-03-07T09:14:35.264Z,27.4
2017-03-07T09:15:36.795Z,27.4
2017-03-07T09:16:36.823Z,27.4
2017-03-07T09:17:35.592Z,27.4
2017-03-07T09:18:36.615Z,27.4
2017-03-07T09:19:35.391Z,27.4
2017-03-07T09:20:35.413Z,27.4
2017-03-07T09:21:35.710Z,27.5
2017-03-07T09:22:37.161Z,27.5
2017-03-07T09:23:37.356Z,27.5
2017-03-07T09:24:37.295Z,27.5
2017-03-07T09:25:35.713Z,27.5
2017-03-07T09:26:35.907Z,27.5
2017-03-07T09:27:37.572Z,27.5
2017-03-07T09:28:37.670Z,27.5
2017-03-07T09:29:36.341Z,27.5
2017-03-07T09:30:38.281Z,27.5
2017-03-07T09:31:36.194Z,27.5
2017-03-07T09:32:36.246Z,27.5
2017-03-07T09:33:36.250Z,27.5
2017-03-07T09:34:37.860Z,27.6
2017-03-07T09:35:38.040Z,27.6
2017-03-07T09:36:37.983Z,27.6
2017-03-07T09:37:36.305Z,27.6
2017-03-07T09:38:36.462Z,27.6
2017-03-07T09:39:36.543Z,27.6
2017-03-07T09:40:39.376Z,27.6
2017-03-07T09:41:39.617Z,27.6
2017-03-07T09:42:38.364Z,27.6
2017-03-07T09:43:38.315Z,27.6
2017-03-07T09:44:39.662Z,27.6
2017-03-07T09:45:38.581Z,27.6
2017-03-07T09:46:37.085Z,27.6
2017-03-07T09:47:37.192Z,27.6
2017-03-07T09:48:37.214Z,27.6
2017-03-07T09:49:37.103Z,27.6
2017-03-07T09:50:38.851Z,27.7
2017-03-07T09:51:37.362Z,27.7
2017-03-07T09:52:38.925Z,27.7
2017-03-07T09:53:37.575Z,27.7
2017-03-07T09:54:39.551Z,27.7
2017-03-07T09:55:37.642Z,27.7
2017-03-07T09:56:38.211Z,27.7
2017-03-07T09:57:37.525Z,27.7
2017-03-07T09:58:37.593Z,27.7
2017-03-07T09:59:37.787Z,27.7
2017-03-07T10:00:40.117Z,27.7
2017-03-07T10:01:39.993Z,27.7
2017-03-07T10:02:39.450Z,27.7
2017-03-07T10:03:39.993Z,27.7
2017-03-07T10:04:39.521Z,27.7
2017-03-07T10:05:37.964Z,27.7
2017-03-07T10:06:39.597Z,27.8
2017-03-07T10:09:45.753Z,27.8
2017-03-07T10:10:39.736Z,27.7
2017-03-07T10:11:38.395Z,27.8
2017-03-07T10:12:40.859Z,27.8
2017-03-07T10:13:39.910Z,27.8
2017-03-07T10:14:39.028Z,27.8
2017-03-07T10:15:39.985Z,27.8
2017-03-07T10:16:38.594Z,27.8
2017-03-07T10:17:40.115Z,27.8
2017-03-07T10:18:38.622Z,27.9
2017-03-07T10:20:40.476Z,27.9
2017-03-07T10:21:38.795Z,27.9
2017-03-07T10:22:41.378Z,27.9
2017-03-07T10:23:39.003Z,27.9
2017-03-07T10:24:39.072Z,27.9
2017-03-07T10:25:39.660Z,28
2017-03-07T10:28:41.424Z,28
2017-03-07T10:29:39.934Z,28
2017-03-07T10:30:39.444Z,28
2017-03-07T10:31:40.957Z,28
2017-03-07T10:32:39.395Z,28
2017-03-07T10:33:41.396Z,28
2017-03-07T10:34:39.577Z,28
2017-03-07T10:35:41.272Z,28
2017-03-07T10:36:41.191Z,28.1
2017-03-07T10:37:41.900Z,28.1
2017-03-07T10:38:39.802Z,28
2017-03-07T10:39:40.033Z,28.1
2017-03-07T10:40:41.453Z,28.1
2017-03-07T10:41:41.080Z,28.1
2017-03-07T10:42:39.909Z,28.1
2017-03-07T10:43:41.275Z,28.1
2017-03-07T10:44:44.119Z,28.1
2017-03-07T10:45:41.480Z,28.1
2017-03-07T10:46:40.239Z,28.1
2017-03-07T10:47:40.376Z,28.1
2017-03-07T10:48:40.481Z,28.1
2017-03-07T10:49:42.860Z,28.1
2017-03-07T10:50:40.574Z,28.1
2017-03-07T10:51:40.712Z,28.1
2017-03-07T10:52:40.565Z,28.1
2017-03-07T10:53:42.136Z,28.1
2017-03-07T10:54:40.806Z,28.2
2017-03-07T10:55:42.389Z,28.2
2017-03-07T10:56:42.540Z,28.2
2017-03-07T10:57:43.279Z,28.2
2017-03-07T10:58:42.628Z,28.2
2017-03-07T10:59:42.580Z,28.2
2017-03-07T11:00:41.090Z,28.2
2017-03-07T11:01:43.040Z,28.2
2017-03-07T11:02:41.368Z,28.2
2017-03-07T11:03:43.163Z,28.2
2017-03-07T11:04:41.615Z,28.2
2017-03-07T11:05:43.848Z,28.2
2017-03-07T11:06:43.145Z,28.2
2017-03-07T11:07:41.739Z,28.2
2017-03-07T11:08:45.132Z,28.2
2017-03-07T11:09:43.862Z,28.2
2017-03-07T11:10:43.562Z,28.2
2017-03-07T11:11:43.576Z,28.2
2017-03-07T11:12:41.822Z,28.2
2017-03-07T11:13:41.904Z,28.2
2017-03-07T11:14:41.995Z,28.3
2017-03-07T11:15:42.632Z,28.2
2017-03-07T11:16:42.069Z,28.2
2017-03-07T11:17:42.752Z,28.2
2017-03-07T11:18:43.848Z,28.2
2017-03-07T11:19:44.396Z,28.2
2017-03-07T11:20:45.119Z,28.2
2017-03-07T11:21:43.913Z,28.2
2017-03-07T11:22:42.483Z,28.2
2017-03-07T11:23:42.403Z,28.2
2017-03-07T11:24:44.214Z,28.2
2017-03-07T11:25:42.452Z,28.2
2017-03-07T11:26:48.750Z,28.2
2017-03-07T11:27:48.327Z,28.2
2017-03-07T11:28:49.441Z,28.2
2017-03-07T11:29:45.059Z,28.2
2017-03-07T11:30:42.787Z,28.3
2017-03-07T11:31:43.956Z,28.2
2017-03-07T11:32:44.359Z,28.3
2017-03-07T11:33:44.235Z,28.3
2017-03-07T11:34:43.641Z,28.3
2017-03-07T11:35:44.447Z,28.4
2017-03-07T11:36:43.595Z,28.4
2017-03-07T11:37:44.708Z,28.4
2017-03-07T11:38:43.188Z,28.4
2017-03-07T11:39:43.311Z,28.4
2017-03-07T11:40:46.348Z,28.4
2017-03-07T11:41:45.032Z,28.5
2017-03-07T11:42:44.946Z,28.5
2017-03-07T11:43:43.356Z,28.5
2017-03-07T11:44:43.482Z,28.6
2017-03-07T11:45:43.528Z,28.6
2017-03-07T11:46:43.605Z,28.6
2017-03-07T11:47:45.167Z,28.6
2017-03-07T11:48:43.739Z,28.6
2017-03-07T11:49:45.376Z,28.7
2017-03-07T11:50:43.858Z,28.7
2017-03-07T11:51:45.510Z,28.8
2017-03-07T11:52:45.430Z,28.8
2017-03-07T11:53:44.012Z,28.9
2017-03-07T11:54:43.904Z,28.9
2017-03-07T11:55:44.050Z,29
2017-03-07T11:56:43.986Z,29
2017-03-07T11:57:44.582Z,29.1
2017-03-07T11:58:45.727Z,29.1
2017-03-07T11:59:45.675Z,29.2
2017-03-07T12:00:45.766Z,29.2
2017-03-07T12:01:46.734Z,29.2
2017-03-07T12:02:44.966Z,29.2
2017-03-07T12:03:47.884Z,29.2
2017-03-07T12:04:46.022Z,29.2
2017-03-07T12:05:46.703Z,29.3
2017-03-07T12:06:45.141Z,29.4
2017-03-07T12:07:46.144Z,29.5
2017-03-07T12:08:44.606Z,29.5
2017-03-07T12:09:47.300Z,29.5
2017-03-07T12:10:44.903Z,29.5
2017-03-07T12:11:46.945Z,29.5
2017-03-07T12:12:46.525Z,29.4
2017-03-07T12:13:45.615Z,29.4
2017-03-07T12:14:45.010Z,29.4
2017-03-07T12:15:46.628Z,29.3
2017-03-07T12:16:47.427Z,29.3
2017-03-07T12:17:46.745Z,29.3
2017-03-07T12:18:45.113Z,29.3
2017-03-07T12:19:45.371Z,29.3
2017-03-07T12:20:48.670Z,29.3
2017-03-07T12:21:45.409Z,29.3
2017-03-07T12:22:48.177Z,29.3
2017-03-07T12:23:45.398Z,29.3
2017-03-07T12:24:48.287Z,29.3
2017-03-07T12:25:49.456Z,29.3
2017-03-07T12:26:47.727Z,29.3
2017-03-07T12:27:47.176Z,29.3
2017-03-07T12:28:45.767Z,29.4
2017-03-07T12:29:47.452Z,29.4
2017-03-07T12:30:45.951Z,29.4
2017-03-07T12:31:46.067Z,29.5
2017-03-07T12:32:46.034Z,29.6
2017-03-07T12:33:46.691Z,29.7
2017-03-07T12:34:46.099Z,29.8
2017-03-07T12:35:46.234Z,29.8
2017-03-07T12:36:47.706Z,29.7
2017-03-07T12:37:47.774Z,29.6
2017-03-07T12:38:47.906Z,29.6
2017-03-07T12:39:47.977Z,29.6
2017-03-07T12:40:46.868Z,29.5
2017-03-07T12:41:49.536Z,29.5
2017-03-07T12:42:46.387Z,29.4
2017-03-07T12:43:46.580Z,29.4
2017-03-07T12:44:46.518Z,29.4
2017-03-07T12:45:48.175Z,29.4
2017-03-07T12:46:46.603Z,29.3
2017-03-07T12:47:48.239Z,29.3
2017-03-07T12:48:46.827Z,29.3
2017-03-07T12:49:46.844Z,29.3
2017-03-07T12:50:48.992Z,29.3
2017-03-07T12:51:48.395Z,29.2
2017-03-07T12:52:47.975Z,29.2
2017-03-07T12:53:48.436Z,29.2
2017-03-07T12:54:49.992Z,29.2
2017-03-07T12:55:48.682Z,29.2
2017-03-07T12:56:47.678Z,29.2
2017-03-07T12:57:48.650Z,29.2
2017-03-07T12:58:47.191Z,29.4
2017-03-07T12:59:47.283Z,29.5
2017-03-07T13:00:47.257Z,29.5
2017-03-07T13:01:48.983Z,29.5
2017-03-07T13:02:48.956Z,29.4
2017-03-07T13:03:48.165Z,29.3
2017-03-07T13:04:47.415Z,29
2017-03-07T13:05:49.183Z,28.8
2017-03-07T13:06:49.802Z,28.5
2017-03-07T13:07:47.636Z,28.2
2017-03-07T13:08:47.608Z,27.9
2017-03-07T13:09:49.299Z,27.7
2017-03-07T13:11:53.914Z,27.4
2017-03-07T13:12:53.770Z,27.3
2017-03-07T13:13:55.785Z,27.1
2017-03-07T13:14:55.552Z,27
2017-03-07T13:15:55.564Z,26.8
2017-03-07T13:16:56.208Z,26.7
2017-03-07T13:17:54.981Z,26.6
2017-03-07T13:18:56.131Z,26.7
2017-03-07T13:19:54.049Z,27
2017-03-07T13:20:56.995Z,27.1
2017-03-07T13:21:55.543Z,27.2
2017-03-07T13:22:57.069Z,27.5
2017-03-07T13:23:55.005Z,27.9
2017-03-07T13:24:55.033Z,28.2
2017-03-07T13:25:55.044Z,28.4
2017-03-07T13:26:54.518Z,28.6
2017-03-07T13:27:56.006Z,28.6
2017-03-07T13:28:54.616Z,28.5
2017-03-07T13:29:56.979Z,28.2
2017-03-07T13:30:56.806Z,28.1
2017-03-07T13:31:54.755Z,28